createdAt,value
2018-09-14T00:00:08.243Z,82.71
2018-09-14T00:03:11.291Z,82.77
2018-09-14T00:06:14.322Z,82.62
2018-09-14T00:09:17.358Z,83.22
2018-09-14T00:12:20.691Z,82.24
2018-09-14T00:15:23.735Z,82.89
2018-09-14T00:18:26.795Z,82.73
2018-09-14T00:21:29.861Z,83.37
2018-09-14T00:24:32.910Z,83.65
2018-09-14T00:27:36.286Z,83.88
2018-09-14T00:30:39.357Z,83.15
2018-09-14T00:33:42.397Z,83.59
2018-09-14T00:36:45.426Z,83.44
2018-09-14T00:39:48.434Z,84.40
2018-09-14T00:42:51.403Z,83.75
2018-09-14T00:45:54.402Z,84.47
2018-09-14T00:48:57.387Z,83.15
2018-09-14T00:52:00.354Z,83.42
2018-09-14T00:55:03.413Z,83.66
2018-09-14T00:58:06.406Z,83.48
2018-09-14T01:01:09.415Z,83.37
2018-09-14T01:04:12.406Z,83.65
2018-09-14T01:07:15.405Z,83.68
2018-09-14T01:10:18.410Z,82.50
2018-09-14T01:13:21.391Z,82.71
2018-09-14T01:16:24.374Z,82.61
2018-09-14T01:19:27.631Z,81.97
2018-09-14T01:22:30.619Z,81.77
2018-09-14T01:25:33.718Z,82.24
2018-09-14T01:28:36.770Z,83.15
2018-09-14T01:31:39.815Z,82.57
2018-09-14T01:34:42.934Z,82.70
2018-09-14T01:37:45.949Z,83.06
2018-09-14T01:40:48.958Z,82.06
2018-09-14T01:43:52.012Z,81.34
2018-09-14T01:46:55.051Z,82.27
2018-09-14T01:49:58.054Z,81.97
2018-09-14T01:53:01.075Z,82.46
2018-09-14T01:56:04.095Z,81.65
2018-09-14T01:59:07.166Z,81.13
2018-09-14T02:02:10.176Z,81.84
2018-09-14T02:05:13.215Z,82.83
2018-09-14T02:08:16.263Z,82.31
2018-09-14T02:11:19.278Z,82.30
2018-09-14T02:14:22.268Z,82.70
2018-09-14T02:17:25.335Z,81.51
2018-09-14T02:20:28.337Z,81.75
2018-09-14T02:23:31.382Z,83.02
2018-09-14T02:26:34.429Z,81.93
2018-09-14T02:29:37.612Z,81.57
2018-09-14T02:32:40.631Z,80.03
2018-09-14T02:35:43.630Z,80.59
2018-09-14T02:38:46.699Z,81.43
2018-09-14T02:41:49.714Z,81.49
2018-09-14T02:44:52.726Z,82.37
2018-09-14T02:47:55.726Z,82.21
2018-09-14T02:50:58.753Z,81.90
2018-09-14T02:54:01.823Z,81.65
2018-09-14T02:57:04.894Z,81.43
2018-09-14T03:00:08.149Z,81.56
2018-09-14T03:03:11.193Z,80.83
2018-09-14T03:06:14.186Z,81.76
2018-09-14T03:09:17.200Z,81.86
2018-09-14T03:12:20.224Z,81.77
2018-09-14T03:15:23.234Z,82.35
2018-09-14T03:18:26.258Z,82.12
2018-09-14T03:21:29.254Z,82.68
2018-09-14T03:24:32.282Z,81.83
2018-09-14T03:27:35.294Z,83.66
2018-09-14T03:30:38.307Z,83.08
2018-09-14T03:33:41.334Z,82.34
2018-09-14T03:36:44.334Z,82.69
2018-09-14T03:39:47.374Z,82.74
2018-09-14T03:42:50.397Z,82.86
2018-09-14T03:45:53.413Z,83.91
2018-09-14T03:48:56.431Z,83.14
2018-09-14T03:51:59.438Z,82.55
2018-09-14T03:55:02.484Z,82.96
2018-09-14T03:58:05.531Z,82.86
2018-09-14T04:01:08.534Z,82.52
2018-09-14T04:04:11.554Z,83.75
2018-09-14T04:07:14.565Z,83.21
2018-09-14T04:10:17.571Z,83.08
2018-09-14T04:13:20.590Z,83.91
2018-09-14T04:16:23.586Z,83.67
2018-09-14T04:19:26.618Z,82.57
2018-09-14T04:22:29.636Z,82.25
2018-09-14T04:25:32.648Z,82.26
2018-09-14T04:28:35.730Z,82.66
2018-09-14T04:31:38.741Z,82.75
2018-09-14T04:34:41.795Z,82.27
2018-09-14T04:37:44.803Z,81.21
2018-09-14T04:40:47.814Z,81.78
2018-09-14T04:43:50.833Z,81.98
2018-09-14T04:46:53.846Z,82.36
2018-09-14T04:49:56.930Z,81.66
2018-09-14T04:52:59.937Z,82.12
2018-09-14T04:56:02.983Z,81.40
2018-09-14T04:59:06.059Z,82.09
2018-09-14T05:02:09.084Z,80.58
2018-09-14T05:05:12.138Z,80.36
2018-09-14T05:08:15.147Z,80.39
2018-09-14T05:11:18.275Z,81.01
2018-09-14T05:14:21.309Z,80.88
2018-09-14T05:17:24.322Z,80.61
2018-09-14T05:20:27.390Z,80.07
2018-09-14T05:23:30.402Z,79.81
2018-09-14T05:26:33.411Z,79.68
2018-09-14T05:29:36.414Z,80.18
2018-09-14T05:32:39.465Z,80.46
2018-09-14T05:35:42.478Z,81.12
2018-09-14T05:38:45.492Z,80.94
2018-09-14T05:41:48.540Z,81.53
2018-09-14T05:44:51.538Z,80.95
2018-09-14T05:47:54.557Z,80.52
2018-09-14T05:50:57.583Z,79.78
2018-09-14T05:54:00.579Z,79.96
2018-09-14T05:57:03.626Z,80.63
2018-09-14T06:00:06.775Z,81.40
2018-09-14T06:03:09.775Z,82.44
2018-09-14T06:06:12.974Z,81.51
2018-09-14T06:09:15.979Z,82.38
2018-09-14T06:12:19.278Z,82.04
2018-09-14T06:15:22.278Z,81.99
2018-09-14T06:18:25.354Z,82.22
2018-09-14T06:21:28.375Z,82.44
2018-09-14T06:24:31.392Z,81.75
2018-09-14T06:27:34.929Z,81.86
2018-09-14T06:30:37.927Z,80.75
2018-09-14T06:33:40.944Z,81.59
2018-09-14T06:36:43.962Z,81.12
2018-09-14T06:39:46.974Z,82.11
2018-09-14T06:42:50.024Z,82.01
2018-09-14T06:45:53.022Z,81.80
2018-09-14T06:48:56.062Z,82.24
2018-09-14T06:51:59.129Z,82.04
2018-09-14T06:55:02.069Z,80.76
2018-09-14T06:58:05.099Z,80.39
2018-09-14T07:01:08.110Z,80.91
2018-09-14T07:04:11.128Z,81.60
2018-09-14T07:07:14.150Z,80.79
2018-09-14T07:10:17.226Z,81.38
2018-09-14T07:13:20.320Z,80.37
2018-09-14T07:16:23.256Z,80.58
2018-09-14T07:19:26.279Z,81.32
2018-09-14T07:22:29.379Z,81.47
2018-09-14T07:25:32.397Z,80.71
2018-09-14T07:28:35.424Z,81.06
2018-09-14T07:31:38.513Z,81.41
2018-09-14T07:34:41.463Z,81.39
2018-09-14T07:37:44.502Z,81.39
2018-09-14T07:40:47.523Z,80.87
2018-09-14T07:43:50.539Z,81.66
2018-09-14T07:46:53.539Z,81.38
2018-09-14T07:49:56.614Z,82.32
2018-09-14T07:53:00.034Z,81.82
2018-09-14T07:56:03.030Z,81.95
2018-09-14T07:59:06.086Z,82.62
2018-09-14T08:02:09.151Z,82.17
2018-09-14T08:05:12.262Z,82.53
2018-09-14T08:08:15.311Z,81.53
2018-09-14T08:11:18.530Z,81.62
2018-09-14T08:14:21.543Z,81.13
2018-09-14T08:17:24.551Z,81.12
2018-09-14T08:20:27.580Z,81.03
2018-09-14T08:23:30.642Z,80.15
2018-09-14T08:26:33.751Z,79.94
2018-09-14T08:29:36.783Z,80.40
2018-09-14T08:32:39.774Z,79.51
2018-09-14T08:35:42.798Z,78.76
2018-09-14T08:38:45.842Z,77.60
2018-09-14T08:41:48.856Z,78.26
2018-09-14T08:44:52.134Z,77.31
2018-09-14T08:47:55.146Z,78.34
2018-09-14T08:50:58.192Z,78.94
2018-09-14T08:54:01.254Z,78.43
2018-09-14T08:57:04.287Z,78.72
2018-09-14T09:00:07.390Z,77.76
2018-09-14T09:03:10.495Z,77.44
2018-09-14T09:06:13.659Z,77.59
2018-09-14T09:09:16.767Z,76.90
2018-09-14T09:12:19.710Z,78.09
2018-09-14T09:15:22.778Z,78.64
2018-09-14T09:18:25.780Z,78.76
2018-09-14T09:21:29.134Z,78.35
2018-09-14T09:24:32.144Z,78.51
2018-09-14T09:27:35.444Z,78.65
2018-09-14T09:30:41.622Z,77.67
2018-09-14T09:33:44.643Z,77.39
2018-09-14T09:36:47.713Z,77.22
2018-09-14T09:39:50.709Z,77.19
2018-09-14T09:42:53.714Z,77.99
2018-09-14T09:45:56.746Z,78.11
2018-09-14T09:48:59.750Z,78.79
2018-09-14T09:52:02.854Z,78.69
2018-09-14T09:55:05.939Z,77.35
2018-09-14T09:58:08.987Z,77.31
2018-09-14T10:01:17.748Z,77.29
2018-09-14T10:04:26.502Z,77.59
2018-09-14T10:07:29.609Z,77.17
2018-09-14T10:10:32.691Z,77.24
2018-09-14T10:13:35.838Z,77.35
2018-09-14T10:16:38.972Z,76.75
2018-09-14T10:19:41.993Z,76.66
2018-09-14T10:22:45.138Z,77.02
2018-09-14T10:25:48.154Z,76.44
2018-09-14T10:28:51.147Z,75.68
2018-09-14T10:31:55.563Z,75.80
2018-09-14T10:34:58.583Z,75.70
2018-09-14T10:38:01.622Z,74.60
2018-09-14T10:41:04.677Z,74.42
2018-09-14T10:44:07.714Z,73.89
2018-09-14T10:47:10.742Z,74.77
2018-09-14T10:50:13.743Z,74.34
2018-09-14T10:53:16.775Z,73.19
2018-09-14T10:56:19.818Z,73.69
2018-09-14T10:59:22.830Z,73.96
2018-09-14T11:02:25.846Z,72.41
2018-09-14T11:05:28.918Z,72.17
2018-09-14T11:08:31.992Z,70.46
2018-09-14T11:11:35.033Z,69.28
2018-09-14T11:14:38.034Z,68.67
2018-09-14T11:17:41.079Z,68.46
2018-09-14T11:20:44.319Z,67.23
2018-09-14T11:23:47.356Z,67.47
2018-09-14T11:26:50.366Z,67.85
2018-09-14T11:29:53.362Z,68.73
2018-09-14T11:32:56.374Z,68.16
2018-09-14T11:35:59.370Z,68.44
2018-09-14T11:39:02.538Z,67.80
2018-09-14T11:42:05.642Z,67.34
2018-09-14T11:45:08.729Z,65.92
2018-09-14T11:48:11.712Z,65.97
2018-09-14T11:51:14.743Z,66.57
2018-09-14T11:54:17.960Z,67.34
2018-09-14T11:57:20.873Z,67.55
2018-09-14T12:00:23.907Z,66.20
2018-09-14T12:03:26.923Z,65.60
2018-09-14T12:06:30.358Z,65.53
2018-09-14T12:09:33.375Z,65.35
2018-09-14T12:12:36.429Z,65.03
2018-09-14T12:15:39.433Z,65.53
2018-09-14T12:18:42.469Z,66.17
2018-09-14T12:21:45.487Z,65.50
2018-09-14T12:24:48.551Z,65.82
2018-09-14T12:27:51.574Z,63.20
2018-09-14T12:30:54.627Z,66.01
2018-09-14T12:33:57.630Z,65.05
2018-09-14T12:37:00.638Z,63.27
2018-09-14T12:40:03.728Z,63.06
2018-09-14T12:43:06.847Z,63.58
2018-09-14T12:46:09.841Z,62.03
2018-09-14T12:49:12.858Z,60.32
2018-09-14T12:52:15.866Z,59.99
2018-09-14T12:55:18.882Z,58.27
2018-09-14T12:58:21.919Z,59.57
2018-09-14T13:01:24.925Z,57.48
2018-09-14T13:04:27.952Z,55.56
2018-09-14T13:07:30.955Z,56.42
2018-09-14T13:10:34.042Z,54.84
2018-09-14T13:13:37.091Z,55.73
2018-09-14T13:16:40.104Z,58.63
2018-09-14T13:19:43.113Z,58.06
2018-09-14T13:22:46.138Z,58.82
2018-09-14T13:25:49.190Z,56.66
2018-09-14T13:28:52.223Z,58.45
2018-09-14T13:31:55.361Z,58.67
2018-09-14T13:34:58.382Z,59.18
2018-09-14T13:38:01.414Z,60.01
2018-09-14T13:41:04.543Z,57.76
2018-09-14T13:44:07.975Z,59.39
2018-09-14T13:47:11.030Z,58.20
2018-09-14T13:50:14.167Z,57.64
2018-09-14T13:53:17.269Z,58.66
2018-09-14T13:56:20.303Z,59.24
2018-09-14T13:59:23.343Z,58.27
2018-09-14T14:02:26.749Z,58.54
2018-09-14T14:05:29.803Z,60.53
2018-09-14T14:08:43.444Z,59.69
2018-09-14T14:11:46.645Z,59.70
2018-09-14T14:14:49.707Z,60.00
2018-09-14T14:17:52.847Z,60.29
2018-09-14T14:20:55.903Z,61.24
2018-09-14T14:23:58.922Z,60.84
2018-09-14T14:27:02.005Z,62.07
2018-09-14T14:30:05.139Z,61.22
2018-09-14T14:33:08.207Z,59.82
2018-09-14T14:36:11.235Z,61.36
2018-09-14T14:39:14.262Z,60.08
2018-09-14T14:42:17.327Z,60.64
2018-09-14T14:45:20.367Z,59.27
2018-09-14T14:48:23.371Z,59.79
2018-09-14T14:51:26.388Z,59.37
2018-09-14T14:54:29.397Z,59.04
2018-09-14T14:57:32.391Z,59.41
2018-09-14T15:00:35.428Z,59.88
2018-09-14T15:03:38.462Z,61.49
2018-09-14T15:06:41.480Z,60.82
2018-09-14T15:09:44.474Z,61.21
2018-09-14T15:12:47.494Z,62.50
2018-09-14T15:15:50.546Z,61.14
2018-09-14T15:18:53.543Z,62.37
2018-09-14T15:21:56.556Z,63.97
2018-09-14T15:24:59.557Z,63.10
2018-09-14T15:28:02.646Z,63.39
2018-09-14T15:31:05.707Z,63.25
2018-09-14T15:34:08.708Z,62.31
2018-09-14T15:37:11.707Z,62.43
2018-09-14T15:40:14.735Z,62.50
2018-09-14T15:43:17.754Z,62.17
2018-09-14T15:46:20.795Z,62.44
2018-09-14T15:49:23.830Z,63.20
2018-09-14T15:52:26.848Z,64.20
2018-09-14T15:55:29.853Z,63.16
2018-09-14T15:58:32.875Z,62.47
2018-09-14T16:01:35.886Z,62.15
2018-09-14T16:04:38.886Z,61.26
2018-09-14T16:07:41.926Z,62.98
2018-09-14T16:10:44.938Z,61.88
2018-09-14T16:13:47.946Z,62.18
2018-09-14T16:16:50.963Z,62.78
2018-09-14T16:19:54.031Z,63.20
2018-09-14T16:22:57.078Z,63.44
2018-09-14T16:26:00.095Z,62.88
2018-09-14T16:29:03.107Z,63.78
2018-09-14T16:32:06.152Z,63.80
2018-09-14T16:35:09.203Z,64.20
2018-09-14T16:38:12.335Z,65.17
2018-09-14T16:41:15.358Z,65.27
2018-09-14T16:44:18.391Z,65.16
2018-09-14T16:47:21.410Z,66.69
2018-09-14T16:50:24.468Z,66.03
2018-09-14T16:53:27.441Z,67.69
2018-09-14T16:56:30.451Z,67.86
2018-09-14T16:59:33.486Z,68.53
2018-09-14T17:02:36.550Z,68.61
2018-09-14T17:05:39.654Z,69.69
2018-09-14T17:08:42.671Z,69.78
2018-09-14T17:11:45.735Z,70.60
2018-09-14T17:14:48.785Z,70.63
2018-09-14T17:17:51.819Z,70.41
2018-09-14T17:20:54.816Z,69.91
2018-09-14T17:23:57.843Z,71.43
2018-09-14T17:27:00.842Z,71.40
2018-09-14T17:30:04.207Z,72.33
2018-09-14T17:33:07.362Z,72.55
2018-09-14T17:36:10.398Z,73.79
2018-09-14T17:39:13.425Z,73.47
2018-09-14T17:42:16.491Z,73.96
2018-09-14T17:45:19.511Z,73.16
2018-09-14T17:48:22.527Z,74.10
2018-09-14T17:51:25.565Z,73.63
2018-09-14T17:54:28.594Z,74.71
2018-09-14T17:57:31.938Z,74.35
2018-09-14T18:00:34.938Z,74.48
2018-09-14T18:03:37.986Z,74.84
2018-09-14T18:06:41.047Z,74.74
2018-09-14T18:09:44.334Z,74.31
2018-09-14T18:12:47.320Z,74.91
2018-09-14T18:15:50.409Z,73.55
2018-09-14T18:18:53.451Z,73.90
2018-09-14T18:21:56.453Z,71.80
2018-09-14T18:24:59.479Z,72.47
2018-09-14T18:28:02.749Z,72.62
2018-09-14T18:31:05.801Z,72.85
2018-09-14T18:34:08.823Z,73.75
2018-09-14T18:37:11.942Z,74.45
2018-09-14T18:40:15.006Z,73.74
2018-09-14T18:43:18.063Z,73.50
2018-09-14T18:46:21.295Z,73.38
2018-09-14T18:49:24.386Z,74.12
2018-09-14T18:52:27.402Z,73.79
2018-09-14T18:55:30.480Z,74.78
2018-09-14T18:58:33.479Z,74.48
2018-09-14T19:01:36.506Z,74.50
2018-09-14T19:04:39.842Z,74.96
2018-09-14T19:07:42.843Z,75.28
2018-09-14T19:10:45.969Z,75.16
2018-09-14T19:13:48.970Z,75.11
2018-09-14T19:16:51.985Z,75.23
2018-09-14T19:19:55.035Z,74.92
2018-09-14T19:22:58.067Z,74.66
2018-09-14T19:26:01.387Z,75.92
2018-09-14T19:29:04.512Z,76.16
2018-09-14T19:32:07.552Z,76.20
2018-09-14T19:35:11.621Z,76.50
2018-09-14T19:38:14.645Z,75.79
2018-09-14T19:41:17.701Z,76.49
2018-09-14T19:44:20.720Z,76.37
2018-09-14T19:47:23.747Z,76.37
2018-09-14T19:50:26.754Z,76.76
2018-09-14T19:53:29.785Z,76.01
2018-09-14T19:56:33.009Z,76.06
2018-09-14T19:59:36.015Z,76.47
2018-09-14T20:02:39.094Z,75.90
2018-09-14T20:05:42.108Z,76.61
2018-09-14T20:08:45.160Z,76.56
2018-09-14T20:11:48.270Z,76.75
2018-09-14T20:14:51.219Z,77.02
2018-09-14T20:17:54.275Z,76.76
2018-09-14T20:20:57.259Z,76.34
2018-09-14T20:24:00.266Z,76.71
2018-09-14T20:27:03.323Z,76.55
2018-09-14T20:30:07.219Z,76.13
2018-09-14T20:33:10.633Z,76.55
2018-09-14T20:36:13.643Z,76.07
2018-09-14T20:39:16.678Z,76.91
2018-09-14T20:42:26.451Z,77.42
2018-09-14T20:45:29.464Z,76.83
2018-09-14T20:48:32.490Z,77.43
2018-09-14T20:51:35.565Z,76.92
2018-09-14T20:54:38.559Z,76.82
2018-09-14T20:57:41.586Z,76.04
2018-09-14T21:00:44.621Z,75.97
2018-09-14T21:03:47.667Z,76.31
2018-09-14T21:06:50.678Z,75.87
2018-09-14T21:09:53.701Z,76.83
2018-09-14T21:12:56.730Z,76.52
2018-09-14T21:15:59.744Z,76.42
2018-09-14T21:19:03.162Z,76.70
2018-09-14T21:22:06.230Z,76.58
2018-09-14T21:25:09.258Z,76.44
2018-09-14T21:28:12.291Z,76.05
2018-09-14T21:31:15.298Z,76.61
2018-09-14T21:34:19.137Z,76.20
2018-09-14T21:37:22.143Z,76.94
2018-09-14T21:40:25.290Z,77.34
2018-09-14T21:43:28.267Z,77.79
2018-09-14T21:46:31.265Z,77.29
2018-09-14T21:49:34.278Z,77.12
2018-09-14T21:52:37.283Z,76.83
2018-09-14T21:55:40.319Z,77.32
2018-09-14T21:58:43.346Z,76.28
2018-09-14T22:01:46.369Z,76.50
2018-09-14T22:04:49.412Z,76.62
2018-09-14T22:07:52.397Z,76.09
2018-09-14T22:10:55.422Z,75.39
2018-09-14T22:13:58.437Z,75.82
2018-09-14T22:17:01.495Z,76.47
2018-09-14T22:20:04.825Z,76.34
2018-09-14T22:23:07.923Z,76.04
2018-09-14T22:26:10.990Z,76.95
2018-09-14T22:29:14.019Z,76.76
2018-09-14T22:32:17.155Z,76.42
2018-09-14T22:35:20.302Z,76.94
2018-09-14T22:38:23.335Z,77.02
2018-09-14T22:41:26.442Z,77.88
2018-09-14T22:44:29.483Z,77.22
2018-09-14T22:47:32.483Z,77.35
2018-09-14T22:50:35.737Z,78.04
2018-09-14T22:53:38.770Z,77.59
2018-09-14T22:56:41.799Z,77.83
2018-09-14T22:59:44.815Z,77.81
2018-09-14T23:02:47.836Z,78.46
2018-09-14T23:05:50.842Z,77.78
2018-09-14T23:08:53.863Z,78.58
2018-09-14T23:11:56.882Z,77.60
2018-09-14T23:14:59.878Z,78.36
2018-09-14T23:18:02.974Z,78.10
2018-09-14T23:21:06.028Z,77.98
2018-09-14T23:24:09.058Z,79.19
2018-09-14T23:27:12.101Z,78.65
2018-09-14T23:30:15.108Z,78.30
2018-09-14T23:33:18.127Z,78.72
2018-09-14T23:36:21.190Z,78.18
2018-09-14T23:39:24.205Z,78.16
2018-09-14T23:42:27.246Z,78.17
2018-09-14T23:45:30.258Z,78.53
2018-09-14T23:48:33.270Z,78.23
2018-09-14T23:51:36.282Z,78.15
2018-09-14T23:54:39.278Z,78.40
2018-09-14T23:57:42.306Z,78.29
